sensor_id;sensor_type;location;lat;lon;timestamp;P1;durP1;ratioP1;P2;durP2;ratioP2
25213;SDS011;13160;51.834;4.706;2022-07-23T00:01:03;10.10;;;7.70;;
25213;SDS011;13160;51.834;4.706;2022-07-23T00:03:31;10.10;;;8.15;;
25213;SDS011;13160;51.834;4.706;2022-07-23T00:06:01;10.35;;;7.90;;
25213;SDS011;13160;51.834;4.706;2022-07-23T00:08:35;10.07;;;7.90;;
25213;SDS011;13160;51.834;4.706;2022-07-23T00:11:03;11.85;;;7.65;;
25213;SDS011;13160;51.834;4.706;2022-07-23T00:13:31;11.50;;;7.93;;
25213;SDS011;13160;51.834;4.706;2022-07-23T00:16:00;8.57;;;7.32;;
25213;SDS011;13160;51.834;4.706;2022-07-23T00:18:28;9.48;;;7.65;;
25213;SDS011;13160;51.834;4.706;2022-07-23T00:20:56;11.27;;;7.57;;
25213;SDS011;13160;51.834;4.706;2022-07-23T00:23:26;9.10;;;7.13;;
25213;SDS011;13160;51.834;4.706;2022-07-23T00:25:55;10.52;;;7.97;;
25213;SDS011;13160;51.834;4.706;2022-07-23T00:28:23;11.32;;;7.45;;
25213;SDS011;13160;51.834;4.706;2022-07-23T00:30:51;8.25;;;7.18;;
25213;SDS011;13160;51.834;4.706;2022-07-23T00:33:20;9.05;;;6.90;;
25213;SDS011;13160;51.834;4.706;2022-07-23T00:35:48;12.00;;;8.75;;
25213;SDS011;13160;51.834;4.706;2022-07-23T00:38:16;13.13;;;8.90;;
25213;SDS011;13160;51.834;4.706;2022-07-23T00:40:46;16.90;;;10.50;;
25213;SDS011;13160;51.834;4.706;2022-07-23T00:43:14;16.25;;;11.50;;
25213;SDS011;13160;51.834;4.706;2022-07-23T00:45:42;14.98;;;11.13;;
25213;SDS011;13160;51.834;4.706;2022-07-23T00:48:11;16.13;;;10.95;;
25213;SDS011;13160;51.834;4.706;2022-07-23T00:50:39;16.25;;;10.88;;
25213;SDS011;13160;51.834;4.706;2022-07-23T00:53:07;13.43;;;10.00;;
25213;SDS011;13160;51.834;4.706;2022-07-23T00:55:36;14.60;;;10.43;;
25213;SDS011;13160;51.834;4.706;2022-07-23T00:58:06;16.65;;;10.68;;
25213;SDS011;13160;51.834;4.706;2022-07-23T01:00:36;13.10;;;9.85;;
25213;SDS011;13160;51.834;4.706;2022-07-23T01:03:05;12.55;;;9.63;;
25213;SDS011;13160;51.834;4.706;2022-07-23T01:05:33;11.45;;;9.52;;
25213;SDS011;13160;51.834;4.706;2022-07-23T01:08:02;14.38;;;8.98;;
25213;SDS011;13160;51.834;4.706;2022-07-23T01:10:30;12.43;;;8.32;;
25213;SDS011;13160;51.834;4.706;2022-07-23T01:12:58;8.93;;;7.55;;
25213;SDS011;13160;51.834;4.706;2022-07-23T01:15:30;11.00;;;8.18;;
25213;SDS011;13160;51.834;4.706;2022-07-23T01:17:59;9.05;;;7.93;;
25213;SDS011;13160;51.834;4.706;2022-07-23T01:20:28;10.20;;;7.60;;
25213;SDS011;13160;51.834;4.706;2022-07-23T01:22:58;11.18;;;7.70;;
25213;SDS011;13160;51.834;4.706;2022-07-23T01:25:26;10.35;;;7.97;;
25213;SDS011;13160;51.834;4.706;2022-07-23T01:27:55;9.90;;;8.00;;
25213;SDS011;13160;51.834;4.706;2022-07-23T01:30:23;9.18;;;7.70;;
25213;SDS011;13160;51.834;4.706;2022-07-23T01:32:51;9.82;;;7.88;;
25213;SDS011;13160;51.834;4.706;2022-07-23T01:35:19;10.85;;;7.85;;
25213;SDS011;13160;51.834;4.706;2022-07-23T01:37:48;9.32;;;7.57;;
25213;SDS011;13160;51.834;4.706;2022-07-23T01:40:18;9.20;;;7.35;;
25213;SDS011;13160;51.834;4.706;2022-07-23T01:42:47;11.75;;;8.20;;
25213;SDS011;13160;51.834;4.706;2022-07-23T01:45:16;11.23;;;8.30;;
25213;SDS011;13160;51.834;4.706;2022-07-23T01:47:44;11.73;;;8.27;;
25213;SDS011;13160;51.834;4.706;2022-07-23T01:50:12;10.95;;;8.63;;
25213;SDS011;13160;51.834;4.706;2022-07-23T01:52:41;12.70;;;8.15;;
25213;SDS011;13160;51.834;4.706;2022-07-23T01:55:09;11.18;;;8.07;;
25213;SDS011;13160;51.834;4.706;2022-07-23T01:57:45;12.57;;;8.45;;
25213;SDS011;13160;51.834;4.706;2022-07-23T02:00:14;9.55;;;8.20;;
25213;SDS011;13160;51.834;4.706;2022-07-23T02:02:43;10.45;;;8.65;;
25213;SDS011;13160;51.834;4.706;2022-07-23T02:05:11;10.63;;;8.95;;
25213;SDS011;13160;51.834;4.706;2022-07-23T02:07:39;9.10;;;8.13;;
25213;SDS011;13160;51.834;4.706;2022-07-23T02:10:08;10.73;;;8.82;;
25213;SDS011;13160;51.834;4.706;2022-07-23T02:12:36;13.25;;;9.10;;
25213;SDS011;13160;51.834;4.706;2022-07-23T02:15:07;11.38;;;9.13;;
25213;SDS011;13160;51.834;4.706;2022-07-23T02:17:35;11.48;;;8.90;;
25213;SDS011;13160;51.834;4.706;2022-07-23T02:20:05;10.68;;;8.80;;
25213;SDS011;13160;51.834;4.706;2022-07-23T02:22:34;10.00;;;8.40;;
25213;SDS011;13160;51.834;4.706;2022-07-23T02:25:03;11.30;;;9.00;;
25213;SDS011;13160;51.834;4.706;2022-07-23T02:27:32;13.20;;;9.23;;
25213;SDS011;13160;51.834;4.706;2022-07-23T02:30:01;11.85;;;9.48;;
25213;SDS011;13160;51.834;4.706;2022-07-23T02:32:31;10.88;;;9.23;;
25213;SDS011;13160;51.834;4.706;2022-07-23T02:35:00;9.70;;;8.70;;
25213;SDS011;13160;51.834;4.706;2022-07-23T02:37:29;12.48;;;9.40;;
25213;SDS011;13160;51.834;4.706;2022-07-23T02:39:57;10.85;;;9.32;;
25213;SDS011;13160;51.834;4.706;2022-07-23T02:42:25;10.75;;;9.10;;
25213;SDS011;13160;51.834;4.706;2022-07-23T02:44:54;11.95;;;9.73;;
25213;SDS011;13160;51.834;4.706;2022-07-23T02:47:22;14.60;;;9.68;;
25213;SDS011;13160;51.834;4.706;2022-07-23T02:49:52;13.10;;;9.50;;
25213;SDS011;13160;51.834;4.706;2022-07-23T02:52:20;11.23;;;9.90;;
25213;SDS011;13160;51.834;4.706;2022-07-23T02:54:48;12.90;;;10.30;;
25213;SDS011;13160;51.834;4.706;2022-07-23T02:57:16;12.50;;;10.32;;
25213;SDS011;13160;51.834;4.706;2022-07-23T02:59:44;11.85;;;10.23;;
25213;SDS011;13160;51.834;4.706;2022-07-23T03:02:12;11.95;;;9.73;;
25213;SDS011;13160;51.834;4.706;2022-07-23T03:04:41;11.10;;;9.73;;
25213;SDS011;13160;51.834;4.706;2022-07-23T03:07:11;11.82;;;10.57;;
25213;SDS011;13160;51.834;4.706;2022-07-23T03:09:39;11.95;;;10.32;;
25213;SDS011;13160;51.834;4.706;2022-07-23T03:12:08;10.98;;;9.50;;
25213;SDS011;13160;51.834;4.706;2022-07-23T03:14:39;11.00;;;9.32;;
25213;SDS011;13160;51.834;4.706;2022-07-23T03:17:08;11.65;;;9.77;;
25213;SDS011;13160;51.834;4.706;2022-07-23T03:19:36;15.52;;;10.85;;
25213;SDS011;13160;51.834;4.706;2022-07-23T03:22:04;11.80;;;10.23;;
25213;SDS011;13160;51.834;4.706;2022-07-23T03:24:34;15.07;;;10.73;;
25213;SDS011;13160;51.834;4.706;2022-07-23T03:27:21;13.48;;;10.30;;
25213;SDS011;13160;51.834;4.706;2022-07-23T03:29:49;14.25;;;10.40;;
25213;SDS011;13160;51.834;4.706;2022-07-23T03:32:17;13.10;;;10.98;;
25213;SDS011;13160;51.834;4.706;2022-07-23T03:34:46;15.57;;;10.18;;
25213;SDS011;13160;51.834;4.706;2022-07-23T03:37:15;12.90;;;10.90;;
25213;SDS011;13160;51.834;4.706;2022-07-23T03:39:45;14.50;;;11.05;;
25213;SDS011;13160;51.834;4.706;2022-07-23T03:42:13;14.02;;;10.60;;
25213;SDS011;13160;51.834;4.706;2022-07-23T03:44:41;13.80;;;11.32;;
25213;SDS011;13160;51.834;4.706;2022-07-23T03:47:10;12.75;;;11.43;;
25213;SDS011;13160;51.834;4.706;2022-07-23T03:49:38;12.05;;;10.75;;
25213;SDS011;13160;51.834;4.706;2022-07-23T03:52:06;14.60;;;11.30;;
25213;SDS011;13160;51.834;4.706;2022-07-23T03:54:34;12.18;;;10.70;;
25213;SDS011;13160;51.834;4.706;2022-07-23T03:57:04;14.93;;;11.35;;
25213;SDS011;13160;51.834;4.706;2022-07-23T03:59:32;14.50;;;11.38;;
25213;SDS011;13160;51.834;4.706;2022-07-23T04:02:01;15.10;;;11.35;;
25213;SDS011;13160;51.834;4.706;2022-07-23T04:04:29;12.95;;;10.98;;
25213;SDS011;13160;51.834;4.706;2022-07-23T04:06:57;12.23;;;10.82;;
25213;SDS011;13160;51.834;4.706;2022-07-23T04:09:25;12.43;;;10.65;;
25213;SDS011;13160;51.834;4.706;2022-07-23T04:11:53;13.98;;;11.60;;
25213;SDS011;13160;51.834;4.706;2022-07-23T04:14:23;14.88;;;10.70;;
25213;SDS011;13160;51.834;4.706;2022-07-23T04:16:51;14.82;;;12.10;;
25213;SDS011;13160;51.834;4.706;2022-07-23T04:19:20;13.15;;;11.32;;
25213;SDS011;13160;51.834;4.706;2022-07-23T04:21:48;13.25;;;11.07;;
25213;SDS011;13160;51.834;4.706;2022-07-23T04:24:16;12.55;;;11.25;;
25213;SDS011;13160;51.834;4.706;2022-07-23T04:26:45;13.73;;;11.38;;
25213;SDS011;13160;51.834;4.706;2022-07-23T04:29:13;14.60;;;10.77;;
25213;SDS011;13160;51.834;4.706;2022-07-23T04:31:43;14.38;;;11.18;;
25213;SDS011;13160;51.834;4.706;2022-07-23T04:34:12;14.25;;;11.13;;
25213;SDS011;13160;51.834;4.706;2022-07-23T04:36:40;13.63;;;11.40;;
25213;SDS011;13160;51.834;4.706;2022-07-23T04:39:08;12.68;;;10.40;;
25213;SDS011;13160;51.834;4.706;2022-07-23T04:41:36;13.77;;;10.68;;
25213;SDS011;13160;51.834;4.706;2022-07-23T04:44:05;15.80;;;10.80;;
25213;SDS011;13160;51.834;4.706;2022-07-23T04:46:33;11.90;;;10.45;;
25213;SDS011;13160;51.834;4.706;2022-07-23T04:49:02;11.93;;;10.00;;
25213;SDS011;13160;51.834;4.706;2022-07-23T04:51:32;12.52;;;10.50;;
25213;SDS011;13160;51.834;4.706;2022-07-23T04:54:00;12.43;;;10.57;;
25213;SDS011;13160;51.834;4.706;2022-07-23T04:56:28;13.48;;;10.02;;
25213;SDS011;13160;51.834;4.706;2022-07-23T04:58:56;13.38;;;10.02;;
25213;SDS011;13160;51.834;4.706;2022-07-23T05:01:25;12.75;;;9.65;;
25213;SDS011;13160;51.834;4.706;2022-07-23T05:03:53;11.30;;;9.50;;
25213;SDS011;13160;51.834;4.706;2022-07-23T05:06:23;14.18;;;10.68;;
25213;SDS011;13160;51.834;4.706;2022-07-23T05:08:51;12.27;;;10.15;;
25213;SDS011;13160;51.834;4.706;2022-07-23T05:11:21;12.23;;;9.98;;
25213;SDS011;13160;51.834;4.706;2022-07-23T05:13:52;11.57;;;10.32;;
25213;SDS011;13160;51.834;4.706;2022-07-23T05:16:21;13.35;;;10.13;;
25213;SDS011;13160;51.834;4.706;2022-07-23T05:18:49;12.27;;;9.68;;
25213;SDS011;13160;51.834;4.706;2022-07-23T05:21:17;11.65;;;9.27;;
25213;SDS011;13160;51.834;4.706;2022-07-23T05:23:47;11.23;;;9.65;;
25213;SDS011;13160;51.834;4.706;2022-07-23T05:26:15;12.52;;;10.38;;
25213;SDS011;13160;51.834;4.706;2022-07-23T05:28:47;11.73;;;10.23;;
25213;SDS011;13160;51.834;4.706;2022-07-23T05:31:15;11.70;;;9.90;;
25213;SDS011;13160;51.834;4.706;2022-07-23T05:33:44;12.80;;;9.55;;
25213;SDS011;13160;51.834;4.706;2022-07-23T05:36:13;13.20;;;9.48;;
25213;SDS011;13160;51.834;4.706;2022-07-23T05:38:41;11.60;;;9.32;;
25213;SDS011;13160;51.834;4.706;2022-07-23T05:41:11;12.32;;;8.80;;
25213;SDS011;13160;51.834;4.706;2022-07-23T05:43:39;12.50;;;8.68;;
25213;SDS011;13160;51.834;4.706;2022-07-23T05:46:07;11.77;;;8.02;;
25213;SDS011;13160;51.834;4.706;2022-07-23T05:48:36;11.30;;;7.95;;
25213;SDS011;13160;51.834;4.706;2022-07-23T05:51:04;10.90;;;8.85;;
25213;SDS011;13160;51.834;4.706;2022-07-23T05:53:33;10.13;;;7.30;;
25213;SDS011;13160;51.834;4.706;2022-07-23T05:56:02;10.52;;;6.93;;
25213;SDS011;13160;51.834;4.706;2022-07-23T05:58:32;8.68;;;6.70;;
25213;SDS011;13160;51.834;4.706;2022-07-23T06:01:00;11.20;;;6.97;;
25213;SDS011;13160;51.834;4.706;2022-07-23T06:03:28;9.32;;;5.90;;
25213;SDS011;13160;51.834;4.706;2022-07-23T06:05:56;9.10;;;6.15;;
25213;SDS011;13160;51.834;4.706;2022-07-23T06:08:24;7.68;;;5.65;;
25213;SDS011;13160;51.834;4.706;2022-07-23T06:10:53;9.55;;;6.68;;
25213;SDS011;13160;51.834;4.706;2022-07-23T06:13:21;10.82;;;6.93;;
25213;SDS011;13160;51.834;4.706;2022-07-23T06:15:51;10.90;;;6.72;;
25213;SDS011;13160;51.834;4.706;2022-07-23T06:18:19;9.18;;;6.40;;
25213;SDS011;13160;51.834;4.706;2022-07-23T06:20:47;8.40;;;5.97;;
25213;SDS011;13160;51.834;4.706;2022-07-23T06:23:19;8.23;;;6.50;;
25213;SDS011;13160;51.834;4.706;2022-07-23T06:25:48;9.30;;;6.20;;
25213;SDS011;13160;51.834;4.706;2022-07-23T06:28:16;9.68;;;6.80;;
25213;SDS011;13160;51.834;4.706;2022-07-23T06:30:44;10.63;;;7.13;;
25213;SDS011;13160;51.834;4.706;2022-07-23T06:33:14;12.57;;;6.50;;
25213;SDS011;13160;51.834;4.706;2022-07-23T06:35:42;8.88;;;6.03;;
25213;SDS011;13160;51.834;4.706;2022-07-23T06:38:11;8.20;;;5.43;;
25213;SDS011;13160;51.834;4.706;2022-07-23T06:40:39;8.77;;;5.10;;
25213;SDS011;13160;51.834;4.706;2022-07-23T06:43:07;6.63;;;3.63;;
25213;SDS011;13160;51.834;4.706;2022-07-23T06:45:35;6.32;;;3.75;;
25213;SDS011;13160;51.834;4.706;2022-07-23T06:48:04;4.93;;;3.22;;
25213;SDS011;13160;51.834;4.706;2022-07-23T06:50:34;7.80;;;3.22;;
25213;SDS011;13160;51.834;4.706;2022-07-23T06:53:02;6.20;;;3.80;;
25213;SDS011;13160;51.834;4.706;2022-07-23T06:55:30;4.90;;;3.72;;
25213;SDS011;13160;51.834;4.706;2022-07-23T06:57:58;5.90;;;3.65;;
25213;SDS011;13160;51.834;4.706;2022-07-23T07:00:26;6.75;;;3.28;;
25213;SDS011;13160;51.834;4.706;2022-07-23T07:02:56;6.75;;;3.40;;
25213;SDS011;13160;51.834;4.706;2022-07-23T07:05:25;7.65;;;3.80;;
25213;SDS011;13160;51.834;4.706;2022-07-23T07:07:55;6.32;;;3.60;;
25213;SDS011;13160;51.834;4.706;2022-07-23T07:10:23;5.97;;;3.90;;
25213;SDS011;13160;51.834;4.706;2022-07-23T07:12:51;7.47;;;3.83;;
25213;SDS011;13160;51.834;4.706;2022-07-23T07:15:20;6.40;;;3.78;;
25213;SDS011;13160;51.834;4.706;2022-07-23T07:17:48;5.75;;;3.60;;
25213;SDS011;13160;51.834;4.706;2022-07-23T07:20:16;6.25;;;4.18;;
25213;SDS011;13160;51.834;4.706;2022-07-23T07:22:45;7.65;;;4.00;;
25213;SDS011;13160;51.834;4.706;2022-07-23T07:25:14;6.47;;;3.60;;
25213;SDS011;13160;51.834;4.706;2022-07-23T07:27:43;7.28;;;4.10;;
25213;SDS011;13160;51.834;4.706;2022-07-23T07:30:11;8.73;;;3.45;;
25213;SDS011;13160;51.834;4.706;2022-07-23T07:32:39;6.32;;;3.42;;
25213;SDS011;13160;51.834;4.706;2022-07-23T07:35:24;7.80;;;3.42;;
25213;SDS011;13160;51.834;4.706;2022-07-23T07:37:52;6.95;;;3.63;;
25213;SDS011;13160;51.834;4.706;2022-07-23T07:40:22;7.03;;;3.08;;
25213;SDS011;13160;51.834;4.706;2022-07-23T07:42:57;6.95;;;3.00;;
25213;SDS011;13160;51.834;4.706;2022-07-23T07:45:25;5.55;;;2.70;;
25213;SDS011;13160;51.834;4.706;2022-07-23T07:47:53;7.38;;;2.63;;
25213;SDS011;13160;51.834;4.706;2022-07-23T07:50:22;4.10;;;2.15;;
25213;SDS011;13160;51.834;4.706;2022-07-23T07:52:51;8.52;;;2.72;;
25213;SDS011;13160;51.834;4.706;2022-07-23T07:55:19;4.90;;;2.42;;
25213;SDS011;13160;51.834;4.706;2022-07-23T07:57:49;6.93;;;2.72;;
25213;SDS011;13160;51.834;4.706;2022-07-23T08:00:18;5.35;;;2.80;;
25213;SDS011;13160;51.834;4.706;2022-07-23T08:02:47;5.20;;;2.25;;
25213;SDS011;13160;51.834;4.706;2022-07-23T08:05:19;4.10;;;2.00;;
25213;SDS011;13160;51.834;4.706;2022-07-23T08:07:53;9.10;;;2.58;;
25213;SDS011;13160;51.834;4.706;2022-07-23T08:10:23;4.90;;;2.40;;
25213;SDS011;13160;51.834;4.706;2022-07-23T08:12:54;5.28;;;2.00;;
25213;SDS011;13160;51.834;4.706;2022-07-23T08:15:24;6.13;;;2.38;;
25213;SDS011;13160;51.834;4.706;2022-07-23T08:17:54;4.97;;;2.60;;
25213;SDS011;13160;51.834;4.706;2022-07-23T08:20:23;5.45;;;2.50;;
25213;SDS011;13160;51.834;4.706;2022-07-23T08:22:55;4.55;;;2.45;;
25213;SDS011;13160;51.834;4.706;2022-07-23T08:25:25;8.77;;;3.10;;
25213;SDS011;13160;51.834;4.706;2022-07-23T08:27:57;5.80;;;3.15;;
25213;SDS011;13160;51.834;4.706;2022-07-23T08:30:26;5.18;;;2.90;;
25213;SDS011;13160;51.834;4.706;2022-07-23T08:32:56;5.53;;;2.65;;
25213;SDS011;13160;51.834;4.706;2022-07-23T08:35:28;5.97;;;2.47;;
25213;SDS011;13160;51.834;4.706;2022-07-23T08:37:58;5.10;;;2.33;;
25213;SDS011;13160;51.834;4.706;2022-07-23T08:40:28;6.22;;;2.80;;
25213;SDS011;13160;51.834;4.706;2022-07-23T08:42:59;7.28;;;2.80;;
25213;SDS011;13160;51.834;4.706;2022-07-23T08:45:31;7.22;;;2.67;;
25213;SDS011;13160;51.834;4.706;2022-07-23T08:48:05;7.07;;;2.60;;
25213;SDS011;13160;51.834;4.706;2022-07-23T08:50:36;5.93;;;2.78;;
25213;SDS011;13160;51.834;4.706;2022-07-23T08:53:07;5.25;;;2.42;;
25213;SDS011;13160;51.834;4.706;2022-07-23T08:55:36;7.03;;;2.90;;
25213;SDS011;13160;51.834;4.706;2022-07-23T08:58:06;6.72;;;2.55;;
25213;SDS011;13160;51.834;4.706;2022-07-23T09:00:34;5.60;;;2.63;;
25213;SDS011;13160;51.834;4.706;2022-07-23T09:03:03;5.20;;;2.72;;
25213;SDS011;13160;51.834;4.706;2022-07-23T09:05:31;5.68;;;2.30;;
25213;SDS011;13160;51.834;4.706;2022-07-23T09:08:03;7.70;;;3.15;;
25213;SDS011;13160;51.834;4.706;2022-07-23T09:10:42;5.18;;;2.60;;
25213;SDS011;13160;51.834;4.706;2022-07-23T09:13:24;7.07;;;2.88;;
25213;SDS011;13160;51.834;4.706;2022-07-23T09:15:56;5.28;;;3.10;;
25213;SDS011;13160;51.834;4.706;2022-07-23T09:18:29;7.63;;;3.08;;
25213;SDS011;13160;51.834;4.706;2022-07-23T09:21:11;5.40;;;2.90;;
25213;SDS011;13160;51.834;4.706;2022-07-23T09:23:43;5.85;;;3.10;;
25213;SDS011;13160;51.834;4.706;2022-07-23T09:26:21;5.22;;;2.75;;
25213;SDS011;13160;51.834;4.706;2022-07-23T09:29:04;6.60;;;3.38;;
25213;SDS011;13160;51.834;4.706;2022-07-23T09:31:43;6.18;;;3.58;;
25213;SDS011;13160;51.834;4.706;2022-07-23T09:34:17;7.78;;;2.78;;
25213;SDS011;13160;51.834;4.706;2022-07-23T09:36:49;6.90;;;3.30;;
25213;SDS011;13160;51.834;4.706;2022-07-23T09:39:28;6.57;;;3.13;;
25213;SDS011;13160;51.834;4.706;2022-07-23T09:41:58;9.63;;;3.58;;
25213;SDS011;13160;51.834;4.706;2022-07-23T09:44:42;5.50;;;3.08;;
25213;SDS011;13160;51.834;4.706;2022-07-23T09:47:11;6.53;;;3.15;;
25213;SDS011;13160;51.834;4.706;2022-07-23T09:49:40;5.38;;;2.90;;
25213;SDS011;13160;51.834;4.706;2022-07-23T09:52:26;4.80;;;3.15;;
25213;SDS011;13160;51.834;4.706;2022-07-23T09:55:02;5.75;;;2.92;;
25213;SDS011;13160;51.834;4.706;2022-07-23T09:57:32;5.65;;;2.97;;
25213;SDS011;13160;51.834;4.706;2022-07-23T10:00:03;6.60;;;3.50;;
25213;SDS011;13160;51.834;4.706;2022-07-23T10:02:34;6.03;;;3.50;;
25213;SDS011;13160;51.834;4.706;2022-07-23T10:05:04;7.25;;;3.80;;
25213;SDS011;13160;51.834;4.706;2022-07-23T10:07:34;8.73;;;3.80;;
25213;SDS011;13160;51.834;4.706;2022-07-23T10:10:06;7.40;;;3.60;;
25213;SDS011;13160;51.834;4.706;2022-07-23T10:12:35;7.03;;;3.80;;
25213;SDS011;13160;51.834;4.706;2022-07-23T10:15:23;6.57;;;3.85;;
25213;SDS011;13160;51.834;4.706;2022-07-23T10:17:52;5.63;;;3.45;;
25213;SDS011;13160;51.834;4.706;2022-07-23T10:20:20;7.85;;;4.50;;
25213;SDS011;13160;51.834;4.706;2022-07-23T10:22:50;5.82;;;3.88;;
25213;SDS011;13160;51.834;4.706;2022-07-23T10:25:31;6.63;;;3.35;;
25213;SDS011;13160;51.834;4.706;2022-07-23T10:28:12;7.70;;;3.80;;
25213;SDS011;13160;51.834;4.706;2022-07-23T10:31:17;5.50;;;3.53;;
25213;SDS011;13160;51.834;4.706;2022-07-23T10:34:23;6.05;;;3.83;;
25213;SDS011;13160;51.834;4.706;2022-07-23T10:37:01;6.65;;;3.90;;
25213;SDS011;13160;51.834;4.706;2022-07-23T10:39:36;6.80;;;3.80;;
25213;SDS011;13160;51.834;4.706;2022-07-23T10:42:08;8.57;;;3.92;;
25213;SDS011;13160;51.834;4.706;2022-07-23T10:44:39;8.38;;;3.97;;
25213;SDS011;13160;51.834;4.706;2022-07-23T10:47:11;5.55;;;3.40;;
25213;SDS011;13160;51.834;4.706;2022-07-23T10:50:19;9.10;;;3.85;;
25213;SDS011;13160;51.834;4.706;2022-07-23T10:53:07;5.00;;;3.17;;
25213;SDS011;13160;51.834;4.706;2022-07-23T10:55:40;6.00;;;3.58;;
25213;SDS011;13160;51.834;4.706;2022-07-23T10:58:17;8.10;;;3.92;;
25213;SDS011;13160;51.834;4.706;2022-07-23T11:00:51;6.47;;;3.70;;
25213;SDS011;13160;51.834;4.706;2022-07-23T11:03:34;6.75;;;3.67;;
25213;SDS011;13160;51.834;4.706;2022-07-23T11:06:06;5.68;;;3.53;;
25213;SDS011;13160;51.834;4.706;2022-07-23T11:08:34;6.18;;;3.70;;
25213;SDS011;13160;51.834;4.706;2022-07-23T11:11:09;7.82;;;4.10;;
25213;SDS011;13160;51.834;4.706;2022-07-23T11:13:39;8.32;;;4.07;;
25213;SDS011;13160;51.834;4.706;2022-07-23T11:16:19;6.00;;;3.60;;
25213;SDS011;13160;51.834;4.706;2022-07-23T11:19:03;7.00;;;3.83;;
25213;SDS011;13160;51.834;4.706;2022-07-23T11:21:46;6.35;;;3.50;;
25213;SDS011;13160;51.834;4.706;2022-07-23T11:24:19;7.28;;;3.53;;
25213;SDS011;13160;51.834;4.706;2022-07-23T11:27:02;5.95;;;3.65;;
25213;SDS011;13160;51.834;4.706;2022-07-23T11:29:43;5.35;;;3.78;;
25213;SDS011;13160;51.834;4.706;2022-07-23T11:32:22;6.90;;;3.92;;
25213;SDS011;13160;51.834;4.706;2022-07-23T11:35:20;8.25;;;3.78;;
25213;SDS011;13160;51.834;4.706;2022-07-23T11:37:54;6.47;;;4.47;;
25213;SDS011;13160;51.834;4.706;2022-07-23T11:40:33;7.20;;;4.55;;
25213;SDS011;13160;51.834;4.706;2022-07-23T11:43:02;6.63;;;3.10;;
25213;SDS011;13160;51.834;4.706;2022-07-23T11:45:35;8.30;;;4.28;;
25213;SDS011;13160;51.834;4.706;2022-07-23T11:48:06;6.13;;;4.03;;
25213;SDS011;13160;51.834;4.706;2022-07-23T11:50:38;7.15;;;4.18;;
25213;SDS011;13160;51.834;4.706;2022-07-23T11:53:06;8.68;;;5.10;;
25213;SDS011;13160;51.834;4.706;2022-07-23T11:55:35;9.27;;;4.60;;
25213;SDS011;13160;51.834;4.706;2022-07-23T11:58:03;6.75;;;4.22;;
25213;SDS011;13160;51.834;4.706;2022-07-23T12:00:32;8.00;;;4.80;;
25213;SDS011;13160;51.834;4.706;2022-07-23T12:03:06;8.57;;;4.47;;
25213;SDS011;13160;51.834;4.706;2022-07-23T12:05:35;5.97;;;4.38;;
25213;SDS011;13160;51.834;4.706;2022-07-23T12:08:07;6.38;;;4.45;;
25213;SDS011;13160;51.834;4.706;2022-07-23T12:10:37;6.15;;;4.13;;
25213;SDS011;13160;51.834;4.706;2022-07-23T12:13:09;5.90;;;3.92;;
25213;SDS011;13160;51.834;4.706;2022-07-23T12:15:43;8.77;;;4.40;;
25213;SDS011;13160;51.834;4.706;2022-07-23T12:18:14;7.30;;;4.10;;
25213;SDS011;13160;51.834;4.706;2022-07-23T12:20:48;6.03;;;4.15;;
25213;SDS011;13160;51.834;4.706;2022-07-23T12:23:19;7.72;;;4.80;;
25213;SDS011;13160;51.834;4.706;2022-07-23T12:25:49;6.82;;;4.85;;
25213;SDS011;13160;51.834;4.706;2022-07-23T12:28:19;8.05;;;4.65;;
25213;SDS011;13160;51.834;4.706;2022-07-23T12:30:51;7.13;;;4.93;;
25213;SDS011;13160;51.834;4.706;2022-07-23T12:33:21;6.13;;;4.32;;
25213;SDS011;13160;51.834;4.706;2022-07-23T12:35:53;5.75;;;3.83;;
25213;SDS011;13160;51.834;4.706;2022-07-23T12:38:25;6.80;;;3.95;;
25213;SDS011;13160;51.834;4.706;2022-07-23T12:40:56;5.43;;;2.92;;
25213;SDS011;13160;51.834;4.706;2022-07-23T12:43:27;6.80;;;2.92;;
25213;SDS011;13160;51.834;4.706;2022-07-23T12:46:02;5.25;;;3.13;;
25213;SDS011;13160;51.834;4.706;2022-07-23T12:48:33;4.90;;;2.63;;
25213;SDS011;13160;51.834;4.706;2022-07-23T12:51:05;9.35;;;3.28;;
25213;SDS011;13160;51.834;4.706;2022-07-23T12:53:44;5.10;;;2.75;;
25213;SDS011;13160;51.834;4.706;2022-07-23T12:56:14;7.13;;;3.20;;
25213;SDS011;13160;51.834;4.706;2022-07-23T12:58:46;5.35;;;3.72;;
25213;SDS011;13160;51.834;4.706;2022-07-23T13:01:29;5.28;;;3.35;;
25213;SDS011;13160;51.834;4.706;2022-07-23T13:04:03;7.32;;;4.38;;
25213;SDS011;13160;51.834;4.706;2022-07-23T13:06:41;6.25;;;3.60;;
25213;SDS011;13160;51.834;4.706;2022-07-23T13:09:13;5.00;;;3.28;;
25213;SDS011;13160;51.834;4.706;2022-07-23T13:11:44;5.50;;;3.85;;
25213;SDS011;13160;51.834;4.706;2022-07-23T13:14:14;4.65;;;2.88;;
25213;SDS011;13160;51.834;4.706;2022-07-23T13:16:47;6.35;;;3.67;;
25213;SDS011;13160;51.834;4.706;2022-07-23T13:19:17;5.15;;;3.60;;
25213;SDS011;13160;51.834;4.706;2022-07-23T13:21:49;5.03;;;2.97;;
25213;SDS011;13160;51.834;4.706;2022-07-23T13:24:18;6.82;;;3.45;;
25213;SDS011;13160;51.834;4.706;2022-07-23T13:26:48;5.25;;;3.40;;
25213;SDS011;13160;51.834;4.706;2022-07-23T13:29:18;5.18;;;2.90;;
25213;SDS011;13160;51.834;4.706;2022-07-23T13:31:47;5.10;;;2.72;;
25213;SDS011;13160;51.834;4.706;2022-07-23T13:34:16;5.47;;;4.07;;
25213;SDS011;13160;51.834;4.706;2022-07-23T13:36:45;5.88;;;3.83;;
25213;SDS011;13160;51.834;4.706;2022-07-23T13:39:15;6.53;;;3.10;;
25213;SDS011;13160;51.834;4.706;2022-07-23T13:41:43;5.57;;;3.85;;
25213;SDS011;13160;51.834;4.706;2022-07-23T13:44:16;6.55;;;3.45;;
25213;SDS011;13160;51.834;4.706;2022-07-23T13:46:47;6.53;;;3.50;;
25213;SDS011;13160;51.834;4.706;2022-07-23T13:49:16;5.93;;;3.40;;
25213;SDS011;13160;51.834;4.706;2022-07-23T13:51:45;5.75;;;3.20;;
25213;SDS011;13160;51.834;4.706;2022-07-23T13:54:15;6.05;;;3.50;;
25213;SDS011;13160;51.834;4.706;2022-07-23T13:56:44;5.38;;;3.38;;
25213;SDS011;13160;51.834;4.706;2022-07-23T13:59:15;5.43;;;2.90;;
25213;SDS011;13160;51.834;4.706;2022-07-23T14:01:44;5.55;;;3.40;;
25213;SDS011;13160;51.834;4.706;2022-07-23T14:04:33;5.97;;;3.50;;
25213;SDS011;13160;51.834;4.706;2022-07-23T14:07:01;6.70;;;3.53;;
25213;SDS011;13160;51.834;4.706;2022-07-23T14:09:31;5.55;;;3.25;;
25213;SDS011;13160;51.834;4.706;2022-07-23T14:12:00;5.88;;;3.00;;
25213;SDS011;13160;51.834;4.706;2022-07-23T14:14:28;7.30;;;3.65;;
25213;SDS011;13160;51.834;4.706;2022-07-23T14:16:56;4.90;;;3.38;;
25213;SDS011;13160;51.834;4.706;2022-07-23T14:19:26;6.15;;;3.25;;
25213;SDS011;13160;51.834;4.706;2022-07-23T14:21:56;4.75;;;3.08;;
25213;SDS011;13160;51.834;4.706;2022-07-23T14:24:24;4.72;;;3.20;;
25213;SDS011;13160;51.834;4.706;2022-07-23T14:27:00;6.57;;;3.03;;
25213;SDS011;13160;51.834;4.706;2022-07-23T14:29:31;4.38;;;2.00;;
25213;SDS011;13160;51.834;4.706;2022-07-23T14:32:00;4.30;;;1.80;;
25213;SDS011;13160;51.834;4.706;2022-07-23T14:34:29;5.07;;;1.67;;
25213;SDS011;13160;51.834;4.706;2022-07-23T14:37:00;3.97;;;1.90;;
25213;SDS011;13160;51.834;4.706;2022-07-23T14:39:29;2.53;;;1.50;;
25213;SDS011;13160;51.834;4.706;2022-07-23T14:41:57;4.82;;;1.70;;
25213;SDS011;13160;51.834;4.706;2022-07-23T14:44:27;5.03;;;1.95;;
25213;SDS011;13160;51.834;4.706;2022-07-23T14:46:56;3.13;;;1.77;;
25213;SDS011;13160;51.834;4.706;2022-07-23T14:49:26;2.92;;;1.38;;
25213;SDS011;13160;51.834;4.706;2022-07-23T14:51:54;3.17;;;1.85;;
25213;SDS011;13160;51.834;4.706;2022-07-23T14:54:23;3.45;;;1.92;;
25213;SDS011;13160;51.834;4.706;2022-07-23T14:56:52;4.72;;;2.08;;
25213;SDS011;13160;51.834;4.706;2022-07-23T14:59:21;4.00;;;1.70;;
25213;SDS011;13160;51.834;4.706;2022-07-23T15:01:51;4.50;;;2.10;;